sensor_id;sensor_type;location;lat;lon;timestamp;P1;durP1;ratioP1;P2;durP2;ratioP2
23015;SDS011;11674;52.428;13.584;2023-11-21T00:02:02;9.07;;;4.10;;
23015;SDS011;11674;52.428;13.584;2023-11-21T00:07:09;9.13;;;4.82;;
23015;SDS011;11674;52.428;13.584;2023-11-21T00:12:16;12.88;;;7.07;;
23015;SDS011;11674;52.428;13.584;2023-11-21T00:17:24;5.93;;;3.92;;
23015;SDS011;11674;52.428;13.584;2023-11-21T00:22:32;12.55;;;6.43;;
23015;SDS011;11674;52.428;13.584;2023-11-21T00:27:42;14.43;;;8.13;;
23015;SDS011;11674;52.428;13.584;2023-11-21T00:32:49;11.35;;;6.38;;
23015;SDS011;11674;52.428;13.584;2023-11-21T00:37:56;26.33;;;12.32;;
23015;SDS011;11674;52.428;13.584;2023-11-21T00:43:03;19.63;;;10.07;;
23015;SDS011;11674;52.428;13.584;2023-11-21T00:48:10;24.52;;;10.82;;
23015;SDS011;11674;52.428;13.584;2023-11-21T00:53:17;24.42;;;11.00;;
23015;SDS011;11674;52.428;13.584;2023-11-21T00:58:25;25.55;;;11.18;;
23015;SDS011;11674;52.428;13.584;2023-11-21T01:03:31;32.30;;;12.93;;
23015;SDS011;11674;52.428;13.584;2023-11-21T01:08:38;32.40;;;13.05;;
23015;SDS011;11674;52.428;13.584;2023-11-21T01:13:45;41.20;;;15.20;;
23015;SDS011;11674;52.428;13.584;2023-11-21T01:18:52;40.78;;;16.65;;
23015;SDS011;11674;52.428;13.584;2023-11-21T01:23:59;41.22;;;17.23;;
23015;SDS011;11674;52.428;13.584;2023-11-21T01:29:06;60.97;;;20.13;;
23015;SDS011;11674;52.428;13.584;2023-11-21T01:34:13;52.20;;;18.95;;
23015;SDS011;11674;52.428;13.584;2023-11-21T01:39:20;52.53;;;18.08;;
23015;SDS011;11674;52.428;13.584;2023-11-21T01:44:28;43.42;;;17.27;;
23015;SDS011;11674;52.428;13.584;2023-11-21T01:49:35;39.00;;;15.32;;
23015;SDS011;11674;52.428;13.584;2023-11-21T01:54:43;34.45;;;14.05;;
23015;SDS011;11674;52.428;13.584;2023-11-21T01:59:50;38.45;;;15.27;;
23015;SDS011;11674;52.428;13.584;2023-11-21T02:05:00;38.22;;;14.90;;
23015;SDS011;11674;52.428;13.584;2023-11-21T02:10:07;46.90;;;15.80;;
23015;SDS011;11674;52.428;13.584;2023-11-21T02:15:16;58.85;;;19.33;;
23015;SDS011;11674;52.428;13.584;2023-11-21T02:20:23;71.03;;;21.50;;
23015;SDS011;11674;52.428;13.584;2023-11-21T02:25:32;69.25;;;20.02;;
23015;SDS011;11674;52.428;13.584;2023-11-21T02:30:39;64.38;;;18.40;;
23015;SDS011;11674;52.428;13.584;2023-11-21T02:35:48;58.65;;;16.90;;
23015;SDS011;11674;52.428;13.584;2023-11-21T02:40:56;44.13;;;13.95;;
23015;SDS011;11674;52.428;13.584;2023-11-21T02:46:03;31.30;;;11.48;;
23015;SDS011;11674;52.428;13.584;2023-11-21T02:51:10;27.85;;;11.27;;
23015;SDS011;11674;52.428;13.584;2023-11-21T02:56:17;31.60;;;11.40;;
23015;SDS011;11674;52.428;13.584;2023-11-21T03:01:24;29.05;;;11.25;;
23015;SDS011;11674;52.428;13.584;2023-11-21T03:06:31;30.92;;;11.43;;
23015;SDS011;11674;52.428;13.584;2023-11-21T03:11:38;30.40;;;11.20;;
23015;SDS011;11674;52.428;13.584;2023-11-21T03:16:45;29.67;;;10.75;;
23015;SDS011;11674;52.428;13.584;2023-11-21T03:21:56;31.60;;;10.88;;
23015;SDS011;11674;52.428;13.584;2023-11-21T03:27:03;25.33;;;10.20;;
23015;SDS011;11674;52.428;13.584;2023-11-21T03:32:13;24.42;;;9.65;;
23015;SDS011;11674;52.428;13.584;2023-11-21T03:37:23;21.08;;;9.68;;
23015;SDS011;11674;52.428;13.584;2023-11-21T03:42:30;18.88;;;9.15;;
23015;SDS011;11674;52.428;13.584;2023-11-21T03:47:37;15.35;;;8.13;;
23015;SDS011;11674;52.428;13.584;2023-11-21T03:52:44;14.00;;;8.95;;
23015;SDS011;11674;52.428;13.584;2023-11-21T03:57:52;18.48;;;8.75;;
23015;SDS011;11674;52.428;13.584;2023-11-21T04:03:01;15.02;;;8.50;;
23015;SDS011;11674;52.428;13.584;2023-11-21T04:08:08;14.70;;;8.25;;
23015;SDS011;11674;52.428;13.584;2023-11-21T04:13:15;14.27;;;8.65;;
23015;SDS011;11674;52.428;13.584;2023-11-21T04:18:22;12.30;;;7.43;;
23015;SDS011;11674;52.428;13.584;2023-11-21T04:23:29;11.65;;;6.80;;
23015;SDS011;11674;52.428;13.584;2023-11-21T04:34:14;7.93;;;4.47;;
23015;SDS011;11674;52.428;13.584;2023-11-21T04:39:21;6.53;;;4.07;;
23015;SDS011;11674;52.428;13.584;2023-11-21T04:44:28;8.23;;;4.80;;
23015;SDS011;11674;52.428;13.584;2023-11-21T04:49:35;8.50;;;4.53;;
23015;SDS011;11674;52.428;13.584;2023-11-21T04:54:42;6.78;;;4.53;;
23015;SDS011;11674;52.428;13.584;2023-11-21T04:59:49;7.63;;;5.03;;
23015;SDS011;11674;52.428;13.584;2023-11-21T05:04:56;7.68;;;4.82;;
23015;SDS011;11674;52.428;13.584;2023-11-21T05:10:06;11.45;;;6.85;;
23015;SDS011;11674;52.428;13.584;2023-11-21T05:15:14;8.18;;;4.65;;
23015;SDS011;11674;52.428;13.584;2023-11-21T05:20:21;8.27;;;4.72;;
23015;SDS011;11674;52.428;13.584;2023-11-21T05:25:28;9.27;;;5.25;;
23015;SDS011;11674;52.428;13.584;2023-11-21T05:30:35;7.22;;;4.93;;
23015;SDS011;11674;52.428;13.584;2023-11-21T05:35:42;9.00;;;5.20;;
23015;SDS011;11674;52.428;13.584;2023-11-21T05:40:49;11.63;;;6.40;;
23015;SDS011;11674;52.428;13.584;2023-11-21T05:45:56;9.75;;;5.45;;
23015;SDS011;11674;52.428;13.584;2023-11-21T05:51:06;10.55;;;5.60;;
23015;SDS011;11674;52.428;13.584;2023-11-21T05:56:13;8.23;;;5.25;;
23015;SDS011;11674;52.428;13.584;2023-11-21T06:01:20;7.55;;;5.20;;
23015;SDS011;11674;52.428;13.584;2023-11-21T06:06:27;7.50;;;5.40;;
23015;SDS011;11674;52.428;13.584;2023-11-21T06:11:35;7.85;;;4.72;;
23015;SDS011;11674;52.428;13.584;2023-11-21T06:16:41;8.98;;;4.90;;
23015;SDS011;11674;52.428;13.584;2023-11-21T06:21:48;7.72;;;5.00;;
23015;SDS011;11674;52.428;13.584;2023-11-21T06:26:55;7.53;;;5.07;;
23015;SDS011;11674;52.428;13.584;2023-11-21T06:32:02;9.98;;;5.10;;
23015;SDS011;11674;52.428;13.584;2023-11-21T06:37:09;7.95;;;5.10;;
23015;SDS011;11674;52.428;13.584;2023-11-21T06:42:16;7.90;;;4.97;;
23015;SDS011;11674;52.428;13.584;2023-11-21T06:47:27;7.57;;;5.07;;
23015;SDS011;11674;52.428;13.584;2023-11-21T06:52:34;9.45;;;5.43;;
23015;SDS011;11674;52.428;13.584;2023-11-21T06:57:41;10.20;;;5.43;;
23015;SDS011;11674;52.428;13.584;2023-11-21T07:02:48;10.18;;;5.47;;
23015;SDS011;11674;52.428;13.584;2023-11-21T07:08:02;8.32;;;5.53;;
23015;SDS011;11674;52.428;13.584;2023-11-21T07:13:09;7.65;;;5.55;;
23015;SDS011;11674;52.428;13.584;2023-11-21T07:18:16;9.93;;;5.80;;
23015;SDS011;11674;52.428;13.584;2023-11-21T07:23:23;6.07;;;4.60;;
23015;SDS011;11674;52.428;13.584;2023-11-21T07:28:30;7.32;;;4.47;;
23015;SDS011;11674;52.428;13.584;2023-11-21T07:33:37;8.23;;;4.90;;
23015;SDS011;11674;52.428;13.584;2023-11-21T07:38:44;9.52;;;5.45;;
23015;SDS011;11674;52.428;13.584;2023-11-21T07:43:51;10.48;;;5.50;;
23015;SDS011;11674;52.428;13.584;2023-11-21T07:49:01;11.48;;;5.70;;
23015;SDS011;11674;52.428;13.584;2023-11-21T07:54:07;15.05;;;5.55;;
23015;SDS011;11674;52.428;13.584;2023-11-21T07:59:14;13.93;;;6.13;;
23015;SDS011;11674;52.428;13.584;2023-11-21T08:04:21;14.63;;;6.38;;
23015;SDS011;11674;52.428;13.584;2023-11-21T08:09:28;18.73;;;7.45;;
23015;SDS011;11674;52.428;13.584;2023-11-21T08:14:35;18.58;;;6.20;;
23015;SDS011;11674;52.428;13.584;2023-11-21T08:19:42;17.75;;;8.10;;
23015;SDS011;11674;52.428;13.584;2023-11-21T08:24:49;20.08;;;8.38;;
23015;SDS011;11674;52.428;13.584;2023-11-21T08:29:56;21.75;;;8.95;;
23015;SDS011;11674;52.428;13.584;2023-11-21T08:35:03;23.40;;;8.50;;
23015;SDS011;11674;52.428;13.584;2023-11-21T08:40:11;18.92;;;8.18;;
23015;SDS011;11674;52.428;13.584;2023-11-21T08:45:19;17.17;;;7.20;;
23015;SDS011;11674;52.428;13.584;2023-11-21T08:50:25;13.23;;;5.78;;
23015;SDS011;11674;52.428;13.584;2023-11-21T08:55:32;11.38;;;5.20;;
23015;SDS011;11674;52.428;13.584;2023-11-21T09:00:39;6.45;;;3.95;;
23015;SDS011;11674;52.428;13.584;2023-11-21T09:05:46;10.55;;;4.07;;
23015;SDS011;11674;52.428;13.584;2023-11-21T09:10:53;7.47;;;3.17;;
23015;SDS011;11674;52.428;13.584;2023-11-21T09:16:05;6.97;;;3.17;;
23015;SDS011;11674;52.428;13.584;2023-11-21T09:21:11;6.15;;;3.08;;
23015;SDS011;11674;52.428;13.584;2023-11-21T09:26:18;4.97;;;2.97;;
23015;SDS011;11674;52.428;13.584;2023-11-21T09:31:25;5.28;;;3.38;;
23015;SDS011;11674;52.428;13.584;2023-11-21T09:36:32;6.22;;;3.60;;
23015;SDS011;11674;52.428;13.584;2023-11-21T09:41:49;4.80;;;3.42;;
23015;SDS011;11674;52.428;13.584;2023-11-21T09:47:01;3.92;;;2.55;;
23015;SDS011;11674;52.428;13.584;2023-11-21T09:52:11;3.75;;;2.47;;
23015;SDS011;11674;52.428;13.584;2023-11-21T09:57:28;3.47;;;2.30;;
23015;SDS011;11674;52.428;13.584;2023-11-21T10:02:36;2.83;;;2.42;;
23015;SDS011;11674;52.428;13.584;2023-11-21T10:07:45;2.78;;;2.13;;
23015;SDS011;11674;52.428;13.584;2023-11-21T10:12:55;2.60;;;1.98;;
23015;SDS011;11674;52.428;13.584;2023-11-21T10:18:04;2.28;;;1.80;;
23015;SDS011;11674;52.428;13.584;2023-11-21T10:23:11;3.28;;;1.75;;
23015;SDS011;11674;52.428;13.584;2023-11-21T10:28:18;1.92;;;1.52;;
23015;SDS011;11674;52.428;13.584;2023-11-21T10:33:28;2.42;;;1.60;;
23015;SDS011;11674;52.428;13.584;2023-11-21T10:38:42;4.57;;;1.80;;
23015;SDS011;11674;52.428;13.584;2023-11-21T10:43:48;3.78;;;1.67;;
23015;SDS011;11674;52.428;13.584;2023-11-21T10:48:58;1.60;;;1.50;;
23015;SDS011;11674;52.428;13.584;2023-11-21T10:54:05;2.17;;;1.58;;
23015;SDS011;11674;52.428;13.584;2023-11-21T10:59:12;3.50;;;2.30;;
23015;SDS011;11674;52.428;13.584;2023-11-21T11:04:19;3.55;;;1.85;;
23015;SDS011;11674;52.428;13.584;2023-11-21T11:09:28;5.38;;;2.03;;
23015;SDS011;11674;52.428;13.584;2023-11-21T11:14:40;3.45;;;2.35;;
23015;SDS011;11674;52.428;13.584;2023-11-21T11:19:47;4.13;;;2.03;;
23015;SDS011;11674;52.428;13.584;2023-11-21T11:25:03;4.75;;;2.63;;
23015;SDS011;11674;52.428;13.584;2023-11-21T11:35:52;6.43;;;2.13;;
23015;SDS011;11674;52.428;13.584;2023-11-21T11:41:07;4.85;;;2.40;;
23015;SDS011;11674;52.428;13.584;2023-11-21T11:46:15;6.05;;;3.35;;
23015;SDS011;11674;52.428;13.584;2023-11-21T11:51:21;4.00;;;2.72;;
23015;SDS011;11674;52.428;13.584;2023-11-21T11:56:30;4.70;;;2.83;;
23015;SDS011;11674;52.428;13.584;2023-11-21T12:01:37;4.20;;;2.70;;
23015;SDS011;11674;52.428;13.584;2023-11-21T12:06:44;4.10;;;3.08;;
23015;SDS011;11674;52.428;13.584;2023-11-21T12:11:51;3.47;;;2.60;;
23015;SDS011;11674;52.428;13.584;2023-11-21T12:16:59;4.10;;;2.70;;
23015;SDS011;11674;52.428;13.584;2023-11-21T12:22:12;5.75;;;2.40;;
23015;SDS011;11674;52.428;13.584;2023-11-21T12:27:20;5.68;;;2.95;;
23015;SDS011;11674;52.428;13.584;2023-11-21T12:32:27;3.00;;;2.22;;
23015;SDS011;11674;52.428;13.584;2023-11-21T12:37:34;5.40;;;3.10;;
23015;SDS011;11674;52.428;13.584;2023-11-21T12:42:43;5.40;;;3.35;;
23015;SDS011;11674;52.428;13.584;2023-11-21T12:47:54;5.13;;;3.60;;
23015;SDS011;11674;52.428;13.584;2023-11-21T12:53:03;3.55;;;2.75;;
23015;SDS011;11674;52.428;13.584;2023-11-21T12:58:11;7.22;;;3.00;;
23015;SDS011;11674;52.428;13.584;2023-11-21T13:03:18;4.53;;;2.75;;
23015;SDS011;11674;52.428;13.584;2023-11-21T13:08:26;4.70;;;2.85;;
23015;SDS011;11674;52.428;13.584;2023-11-21T13:13:33;3.50;;;2.63;;
23015;SDS011;11674;52.428;13.584;2023-11-21T13:18:41;4.55;;;3.15;;
23015;SDS011;11674;52.428;13.584;2023-11-21T13:23:48;4.75;;;3.30;;
23015;SDS011;11674;52.428;13.584;2023-11-21T13:28:55;5.13;;;3.80;;
23015;SDS011;11674;52.428;13.584;2023-11-21T13:34:02;4.82;;;3.30;;
23015;SDS011;11674;52.428;13.584;2023-11-21T13:39:09;10.20;;;5.38;;
23015;SDS011;11674;52.428;13.584;2023-11-21T13:44:16;8.40;;;5.65;;
23015;SDS011;11674;52.428;13.584;2023-11-21T13:49:23;11.73;;;5.57;;
23015;SDS011;11674;52.428;13.584;2023-11-21T13:54:30;8.35;;;5.13;;
23015;SDS011;11674;52.428;13.584;2023-11-21T13:59:37;8.15;;;5.35;;
23015;SDS011;11674;52.428;13.584;2023-11-21T14:04:44;7.47;;;4.75;;
23015;SDS011;11674;52.428;13.584;2023-11-21T14:09:51;7.07;;;4.50;;
23015;SDS011;11674;52.428;13.584;2023-11-21T14:14:58;6.28;;;4.55;;
23015;SDS011;11674;52.428;13.584;2023-11-21T14:20:06;7.53;;;5.13;;
23015;SDS011;11674;52.428;13.584;2023-11-21T14:25:14;7.22;;;5.13;;
23015;SDS011;11674;52.428;13.584;2023-11-21T14:30:21;10.65;;;5.82;;
23015;SDS011;11674;52.428;13.584;2023-11-21T14:35:29;10.57;;;7.63;;
23015;SDS011;11674;52.428;13.584;2023-11-21T14:40:36;15.73;;;8.95;;
23015;SDS011;11674;52.428;13.584;2023-11-21T14:45:43;15.07;;;10.15;;
23015;SDS011;11674;52.428;13.584;2023-11-21T14:50:52;17.45;;;10.40;;
23015;SDS011;11674;52.428;13.584;2023-11-21T14:55:58;16.83;;;11.15;;
23015;SDS011;11674;52.428;13.584;2023-11-21T15:01:05;18.40;;;12.05;;
23015;SDS011;11674;52.428;13.584;2023-11-21T15:06:12;19.88;;;12.15;;
23015;SDS011;11674;52.428;13.584;2023-11-21T15:11:19;18.90;;;12.00;;
23015;SDS011;11674;52.428;13.584;2023-11-21T15:16:27;22.17;;;13.15;;
23015;SDS011;11674;52.428;13.584;2023-11-21T15:21:33;23.13;;;13.80;;
23015;SDS011;11674;52.428;13.584;2023-11-21T15:26:40;23.77;;;12.77;;
23015;SDS011;11674;52.428;13.584;2023-11-21T15:31:51;21.65;;;12.23;;
23015;SDS011;11674;52.428;13.584;2023-11-21T15:36:58;21.92;;;12.45;;
23015;SDS011;11674;52.428;13.584;2023-11-21T15:42:05;18.40;;;10.82;;
23015;SDS011;11674;52.428;13.584;2023-11-21T15:47:11;20.80;;;11.45;;
23015;SDS011;11674;52.428;13.584;2023-11-21T15:52:18;16.35;;;9.40;;
23015;SDS011;11674;52.428;13.584;2023-11-21T15:57:25;15.60;;;9.48;;
23015;SDS011;11674;52.428;13.584;2023-11-21T16:02:33;17.95;;;9.95;;
23015;SDS011;11674;52.428;13.584;2023-11-21T16:07:40;15.10;;;9.75;;
23015;SDS011;11674;52.428;13.584;2023-11-21T16:12:48;16.15;;;9.95;;
23015;SDS011;11674;52.428;13.584;2023-11-21T16:17:55;15.13;;;9.32;;
23015;SDS011;11674;52.428;13.584;2023-11-21T16:23:02;21.77;;;10.65;;
23015;SDS011;11674;52.428;13.584;2023-11-21T16:28:09;19.10;;;10.32;;
23015;SDS011;11674;52.428;13.584;2023-11-21T16:33:16;16.02;;;9.25;;
23015;SDS011;11674;52.428;13.584;2023-11-21T16:38:22;14.30;;;8.15;;
23015;SDS011;11674;52.428;13.584;2023-11-21T16:43:30;15.30;;;8.65;;
23015;SDS011;11674;52.428;13.584;2023-11-21T16:48:37;13.40;;;7.78;;
23015;SDS011;11674;52.428;13.584;2023-11-21T16:59:11;12.23;;;7.80;;
23015;SDS011;11674;52.428;13.584;2023-11-21T17:04:18;14.98;;;8.18;;
23015;SDS011;11674;52.428;13.584;2023-11-21T17:09:25;12.05;;;7.72;;
23015;SDS011;11674;52.428;13.584;2023-11-21T17:14:32;14.48;;;7.85;;
23015;SDS011;11674;52.428;13.584;2023-11-21T17:19:41;14.55;;;7.93;;
23015;SDS011;11674;52.428;13.584;2023-11-21T17:24:49;14.13;;;7.60;;
23015;SDS011;11674;52.428;13.584;2023-11-21T17:29:56;11.93;;;7.38;;
23015;SDS011;11674;52.428;13.584;2023-11-21T17:35:09;12.77;;;7.57;;
23015;SDS011;11674;52.428;13.584;2023-11-21T17:40:17;12.90;;;7.55;;
23015;SDS011;11674;52.428;13.584;2023-11-21T17:45:24;12.70;;;7.20;;
23015;SDS011;11674;52.428;13.584;2023-11-21T17:50:31;15.20;;;7.82;;
23015;SDS011;11674;52.428;13.584;2023-11-21T17:55:38;12.45;;;7.28;;
23015;SDS011;11674;52.428;13.584;2023-11-21T18:00:45;15.00;;;7.60;;
23015;SDS011;11674;52.428;13.584;2023-11-21T18:05:52;13.52;;;7.50;;
23015;SDS011;11674;52.428;13.584;2023-11-21T18:10:59;14.30;;;7.30;;
23015;SDS011;11674;52.428;13.584;2023-11-21T18:16:06;14.52;;;7.30;;
23015;SDS011;11674;52.428;13.584;2023-11-21T18:21:13;12.80;;;7.50;;
23015;SDS011;11674;52.428;13.584;2023-11-21T18:26:20;11.68;;;7.40;;
23015;SDS011;11674;52.428;13.584;2023-11-21T18:31:27;14.23;;;7.60;;
23015;SDS011;11674;52.428;13.584;2023-11-21T18:36:34;15.50;;;7.55;;
23015;SDS011;11674;52.428;13.584;2023-11-21T18:41:50;13.70;;;7.93;;
23015;SDS011;11674;52.428;13.584;2023-11-21T18:46:57;14.77;;;7.85;;
23015;SDS011;11674;52.428;13.584;2023-11-21T18:52:04;14.15;;;7.47;;
23015;SDS011;11674;52.428;13.584;2023-11-21T18:57:11;12.13;;;7.10;;
23015;SDS011;11674;52.428;13.584;2023-11-21T19:02:18;12.43;;;7.40;;
23015;SDS011;11674;52.428;13.584;2023-11-21T19:07:25;12.93;;;7.75;;
23015;SDS011;11674;52.428;13.584;2023-11-21T19:12:32;12.82;;;7.65;;
23015;SDS011;11674;52.428;13.584;2023-11-21T19:17:39;13.32;;;7.45;;
23015;SDS011;11674;52.428;13.584;2023-11-21T19:22:46;14.68;;;8.27;;
23015;SDS011;11674;52.428;13.584;2023-11-21T19:27:53;13.10;;;7.18;;
23015;SDS011;11674;52.428;13.584;2023-11-21T19:33:00;15.05;;;7.55;;
23015;SDS011;11674;52.428;13.584;2023-11-21T19:38:07;11.07;;;6.82;;
23015;SDS011;11674;52.428;13.584;2023-11-21T19:43:15;10.82;;;7.30;;
23015;SDS011;11674;52.428;13.584;2023-11-21T19:48:22;13.50;;;7.70;;
23015;SDS011;11674;52.428;13.584;2023-11-21T19:53:29;14.75;;;7.43;;
23015;SDS011;11674;52.428;13.584;2023-11-21T19:58:36;13.35;;;7.30;;
23015;SDS011;11674;52.428;13.584;2023-11-21T20:03:44;18.88;;;7.45;;
23015;SDS011;11674;52.428;13.584;2023-11-21T20:08:51;11.32;;;6.75;;
23015;SDS011;11674;52.428;13.584;2023-11-21T20:13:58;12.10;;;7.40;;
23015;SDS011;11674;52.428;13.584;2023-11-21T20:19:05;13.57;;;7.57;;
23015;SDS011;11674;52.428;13.584;2023-11-21T20:24:12;12.35;;;7.55;;
23015;SDS011;11674;52.428;13.584;2023-11-21T20:29:19;15.32;;;7.50;;
23015;SDS011;11674;52.428;13.584;2023-11-21T20:34:26;14.35;;;7.05;;
23015;SDS011;11674;52.428;13.584;2023-11-21T20:39:33;13.85;;;7.10;;
23015;SDS011;11674;52.428;13.584;2023-11-21T20:44:40;14.88;;;7.55;;
23015;SDS011;11674;52.428;13.584;2023-11-21T20:49:47;14.05;;;7.38;;
23015;SDS011;11674;52.428;13.584;2023-11-21T20:54:54;12.57;;;7.55;;
23015;SDS011;11674;52.428;13.584;2023-11-21T21:00:01;11.10;;;7.43;;
23015;SDS011;11674;52.428;13.584;2023-11-21T21:05:08;17.60;;;7.93;;
23015;SDS011;11674;52.428;13.584;2023-11-21T21:10:15;10.88;;;7.10;;
23015;SDS011;11674;52.428;13.584;2023-11-21T21:15:22;12.95;;;7.45;;
23015;SDS011;11674;52.428;13.584;2023-11-21T21:20:29;13.00;;;7.13;;
23015;SDS011;11674;52.428;13.584;2023-11-21T21:25:36;11.23;;;6.60;;
23015;SDS011;11674;52.428;13.584;2023-11-21T21:30:43;13.20;;;7.35;;
23015;SDS011;11674;52.428;13.584;2023-11-21T21:35:50;13.02;;;7.05;;
23015;SDS011;11674;52.428;13.584;2023-11-21T21:40:57;14.82;;;7.05;;
23015;SDS011;11674;52.428;13.584;2023-11-21T21:46:04;11.57;;;6.97;;
23015;SDS011;11674;52.428;13.584;2023-11-21T21:51:15;10.35;;;6.88;;
23015;SDS011;11674;52.428;13.584;2023-11-21T21:56:22;13.85;;;6.88;;
23015;SDS011;11674;52.428;13.584;2023-11-21T22:01:31;10.07;;;6.28;;
23015;SDS011;11674;52.428;13.584;2023-11-21T22:06:38;13.07;;;7.32;;
23015;SDS011;11674;52.428;13.584;2023-11-21T22:11:48;12.93;;;6.72;;
23015;SDS011;11674;52.428;13.584;2023-11-21T22:16:55;10.43;;;5.72;;
23015;SDS011;11674;52.428;13.584;2023-11-21T22:22:02;13.82;;;5.68;;
23015;SDS011;11674;52.428;13.584;2023-11-21T22:27:19;13.52;;;6.15;;
23015;SDS011;11674;52.428;13.584;2023-11-21T22:32:27;8.80;;;5.43;;
23015;SDS011;11674;52.428;13.584;2023-11-21T22:37:34;10.27;;;5.45;;
23015;SDS011;11674;52.428;13.584;2023-11-21T22:42:41;9.50;;;5.03;;
23015;SDS011;11674;52.428;13.584;2023-11-21T22:47:48;10.45;;;5.10;;
23015;SDS011;11674;52.428;13.584;2023-11-21T22:52:55;8.07;;;4.68;;
23015;SDS011;11674;52.428;13.584;2023-11-21T22:58:02;9.75;;;4.90;;
23015;SDS011;11674;52.428;13.584;2023-11-21T23:03:09;13.02;;;5.60;;
23015;SDS011;11674;52.428;13.584;2023-11-21T23:08:16;9.15;;;5.47;;
23015;SDS011;11674;52.428;13.584;2023-11-21T23:13:23;9.80;;;4.75;;
23015;SDS011;11674;52.428;13.584;2023-11-21T23:18:30;9.93;;;5.15;;
23015;SDS011;11674;52.428;13.584;2023-11-21T23:23:37;8.80;;;5.18;;
23015;SDS011;11674;52.428;13.584;2023-11-21T23:28:44;7.85;;;5.05;;
23015;SDS011;11674;52.428;13.584;2023-11-21T23:33:51;8.45;;;4.90;;
23015;SDS011;11674;52.428;13.584;2023-11-21T23:38:58;7.65;;;4.63;;
23015;SDS011;11674;52.428;13.584;2023-11-21T23:44:05;10.95;;;5.35;;
23015;SDS011;11674;52.428;13.584;2023-11-21T23:49:12;9.85;;;5.53;;
23015;SDS011;11674;52.428;13.584;2023-11-21T23:54:19;10.38;;;5.28;;
23015;SDS011;11674;52.428;13.584;2023-11-21T23:59:33;8.38;;;5.10;;
